sensor_id;sensor_type;location;lat;lon;timestamp;pressure;altitude;pressure_sealevel;temperature;humidity
53041;BME280;39326;42.650;23.248;2023-02-05T00:01:48;92563.13;;;-4.81;83.09
53041;BME280;39326;42.650;23.248;2023-02-05T00:04:13;92553.59;;;-4.71;81.03
53041;BME280;39326;42.650;23.248;2023-02-05T00:06:38;92561.00;;;-4.65;82.33
53041;BME280;39326;42.650;23.248;2023-02-05T00:09:04;92559.47;;;-4.66;81.78
53041;BME280;39326;42.650;23.248;2023-02-05T00:11:29;92557.88;;;-4.94;82.25
53041;BME280;39326;42.650;23.248;2023-02-05T00:13:55;92564.72;;;-4.98;82.67
53041;BME280;39326;42.650;23.248;2023-02-05T00:16:21;92557.03;;;-4.76;82.26
53041;BME280;39326;42.650;23.248;2023-02-05T00:18:47;92560.91;;;-4.87;82.80
53041;BME280;39326;42.650;23.248;2023-02-05T00:21:13;92557.91;;;-4.81;82.78
53041;BME280;39326;42.650;23.248;2023-02-05T00:23:39;92534.28;;;-5.12;81.89
53041;BME280;39326;42.650;23.248;2023-02-05T00:26:05;92555.53;;;-5.10;82.74
53041;BME280;39326;42.650;23.248;2023-02-05T00:28:32;92560.75;;;-5.10;82.49
53041;BME280;39326;42.650;23.248;2023-02-05T00:30:58;92560.47;;;-4.94;81.63
53041;BME280;39326;42.650;23.248;2023-02-05T00:33:24;92558.59;;;-5.21;81.49
53041;BME280;39326;42.650;23.248;2023-02-05T00:35:49;92559.94;;;-5.24;81.72
53041;BME280;39326;42.650;23.248;2023-02-05T00:38:16;92577.88;;;-5.09;81.19
53041;BME280;39326;42.650;23.248;2023-02-05T00:40:42;92570.09;;;-4.95;80.97
53041;BME280;39326;42.650;23.248;2023-02-05T00:43:08;92571.94;;;-4.95;80.15
53041;BME280;39326;42.650;23.248;2023-02-05T00:45:33;92553.16;;;-5.06;77.78
53041;BME280;39326;42.650;23.248;2023-02-05T00:48:03;92584.53;;;-5.02;79.15
53041;BME280;39326;42.650;23.248;2023-02-05T00:50:29;92586.84;;;-5.01;79.44
53041;BME280;39326;42.650;23.248;2023-02-05T00:52:55;92581.25;;;-5.08;78.31
53041;BME280;39326;42.650;23.248;2023-02-05T00:55:21;92587.31;;;-5.13;78.52
53041;BME280;39326;42.650;23.248;2023-02-05T00:57:46;92593.13;;;-5.21;78.35
53041;BME280;39326;42.650;23.248;2023-02-05T01:00:12;92587.72;;;-5.06;78.29
53041;BME280;39326;42.650;23.248;2023-02-05T01:02:38;92586.50;;;-5.13;78.69
53041;BME280;39326;42.650;23.248;2023-02-05T01:05:04;92590.59;;;-5.26;79.20
53041;BME280;39326;42.650;23.248;2023-02-05T01:07:30;92579.09;;;-5.20;78.46
53041;BME280;39326;42.650;23.248;2023-02-05T01:09:55;92577.56;;;-5.07;79.03
53041;BME280;39326;42.650;23.248;2023-02-05T01:12:21;92584.59;;;-5.08;79.43
53041;BME280;39326;42.650;23.248;2023-02-05T01:14:46;92591.06;;;-5.38;82.48
53041;BME280;39326;42.650;23.248;2023-02-05T01:17:12;92578.16;;;-5.43;80.84
53041;BME280;39326;42.650;23.248;2023-02-05T01:19:37;92574.84;;;-5.48;81.48
53041;BME280;39326;42.650;23.248;2023-02-05T01:22:03;92578.16;;;-5.43;83.87
53041;BME280;39326;42.650;23.248;2023-02-05T01:24:29;92584.25;;;-5.34;82.41
53041;BME280;39326;42.650;23.248;2023-02-05T01:26:54;92591.41;;;-5.25;81.89
53041;BME280;39326;42.650;23.248;2023-02-05T01:29:23;92583.75;;;-5.36;80.62
53041;BME280;39326;42.650;23.248;2023-02-05T01:31:49;92581.78;;;-5.25;80.54
53041;BME280;39326;42.650;23.248;2023-02-05T01:34:14;92573.78;;;-5.47;81.74
53041;BME280;39326;42.650;23.248;2023-02-05T01:36:40;92586.00;;;-5.48;81.84
53041;BME280;39326;42.650;23.248;2023-02-05T01:39:05;92592.91;;;-5.38;80.88
53041;BME280;39326;42.650;23.248;2023-02-05T01:41:31;92592.19;;;-5.44;81.77
53041;BME280;39326;42.650;23.248;2023-02-05T01:46:33;92601.38;;;-5.70;82.19
53041;BME280;39326;42.650;23.248;2023-02-05T01:48:59;92592.97;;;-5.43;82.38
53041;BME280;39326;42.650;23.248;2023-02-05T01:51:27;92594.16;;;-5.36;81.10
53041;BME280;39326;42.650;23.248;2023-02-05T01:53:54;92590.78;;;-5.55;83.92
53041;BME280;39326;42.650;23.248;2023-02-05T01:56:23;92597.41;;;-5.44;83.14
53041;BME280;39326;42.650;23.248;2023-02-05T01:58:55;92597.25;;;-5.52;81.33
53041;BME280;39326;42.650;23.248;2023-02-05T02:01:23;92607.28;;;-5.46;80.97
53041;BME280;39326;42.650;23.248;2023-02-05T02:03:52;92599.91;;;-5.57;81.20
53041;BME280;39326;42.650;23.248;2023-02-05T02:06:18;92607.28;;;-5.46;81.66
53041;BME280;39326;42.650;23.248;2023-02-05T02:08:44;92613.19;;;-5.40;81.21
53041;BME280;39326;42.650;23.248;2023-02-05T02:11:12;92618.59;;;-5.37;81.56
53041;BME280;39326;42.650;23.248;2023-02-05T02:13:42;92611.69;;;-5.27;80.95
53041;BME280;39326;42.650;23.248;2023-02-05T02:16:09;92619.56;;;-5.51;79.14
53041;BME280;39326;42.650;23.248;2023-02-05T02:18:36;92618.19;;;-5.44;79.54
53041;BME280;39326;42.650;23.248;2023-02-05T02:29:02;92630.31;;;-5.58;77.67
53041;BME280;39326;42.650;23.248;2023-02-05T02:31:32;92622.72;;;-5.54;77.78
53041;BME280;39326;42.650;23.248;2023-02-05T02:34:22;92617.31;;;-5.58;79.70
53041;BME280;39326;42.650;23.248;2023-02-05T02:36:57;92614.16;;;-5.93;78.39
53041;BME280;39326;42.650;23.248;2023-02-05T02:39:32;92617.72;;;-5.89;79.53
53041;BME280;39326;42.650;23.248;2023-02-05T02:42:06;92630.13;;;-6.04;78.90
53041;BME280;39326;42.650;23.248;2023-02-05T02:47:28;92636.75;;;-5.93;79.86
53041;BME280;39326;42.650;23.248;2023-02-05T02:49:59;92637.13;;;-5.81;80.12
53041;BME280;39326;42.650;23.248;2023-02-05T02:52:30;92637.06;;;-5.76;79.24
53041;BME280;39326;42.650;23.248;2023-02-05T02:54:59;92634.72;;;-5.77;79.28
53041;BME280;39326;42.650;23.248;2023-02-05T02:57:31;92633.84;;;-5.92;80.83
53041;BME280;39326;42.650;23.248;2023-02-05T02:59:59;92636.84;;;-6.03;80.63
53041;BME280;39326;42.650;23.248;2023-02-05T03:02:30;92638.81;;;-5.95;80.35
53041;BME280;39326;42.650;23.248;2023-02-05T03:05:05;92635.47;;;-5.96;81.41
53041;BME280;39326;42.650;23.248;2023-02-05T03:07:36;92644.91;;;-6.05;82.10
53041;BME280;39326;42.650;23.248;2023-02-05T03:12:41;92644.78;;;-6.13;81.27
53041;BME280;39326;42.650;23.248;2023-02-05T03:15:07;92649.81;;;-6.03;80.75
53041;BME280;39326;42.650;23.248;2023-02-05T03:17:33;92652.00;;;-6.10;80.36
53041;BME280;39326;42.650;23.248;2023-02-05T03:20:15;92650.34;;;-6.25;81.66
53041;BME280;39326;42.650;23.248;2023-02-05T03:22:40;92651.75;;;-6.14;81.22
53041;BME280;39326;42.650;23.248;2023-02-05T03:25:08;92658.22;;;-6.11;81.53
53041;BME280;39326;42.650;23.248;2023-02-05T03:27:34;92650.00;;;-5.95;80.65
53041;BME280;39326;42.650;23.248;2023-02-05T03:30:01;92658.38;;;-6.03;80.07
53041;BME280;39326;42.650;23.248;2023-02-05T03:35:33;92657.28;;;-5.97;80.10
53041;BME280;39326;42.650;23.248;2023-02-05T03:38:15;92653.09;;;-5.93;79.54
53041;BME280;39326;42.650;23.248;2023-02-05T03:56:05;92655.44;;;-5.96;80.37
53041;BME280;39326;42.650;23.248;2023-02-05T03:58:39;92663.81;;;-5.99;80.05
53041;BME280;39326;42.650;23.248;2023-02-05T04:01:07;92669.38;;;-5.87;79.76
53041;BME280;39326;42.650;23.248;2023-02-05T04:03:34;92664.28;;;-5.73;78.18
53041;BME280;39326;42.650;23.248;2023-02-05T04:06:00;92670.16;;;-5.87;79.12
53041;BME280;39326;42.650;23.248;2023-02-05T04:08:25;92674.47;;;-6.01;79.47
53041;BME280;39326;42.650;23.248;2023-02-05T04:10:50;92677.56;;;-5.99;78.81
53041;BME280;39326;42.650;23.248;2023-02-05T04:13:16;92682.94;;;-6.43;80.09
53041;BME280;39326;42.650;23.248;2023-02-05T04:15:41;92679.81;;;-6.45;81.26
53041;BME280;39326;42.650;23.248;2023-02-05T04:18:07;92679.91;;;-6.50;81.26
53041;BME280;39326;42.650;23.248;2023-02-05T04:20:33;92688.91;;;-6.43;81.27
53041;BME280;39326;42.650;23.248;2023-02-05T04:22:58;92699.25;;;-6.72;81.71
53041;BME280;39326;42.650;23.248;2023-02-05T04:25:24;92693.03;;;-6.71;82.23
53041;BME280;39326;42.650;23.248;2023-02-05T04:27:49;92686.03;;;-6.41;81.59
53041;BME280;39326;42.650;23.248;2023-02-05T04:30:14;92681.13;;;-6.43;81.19
53041;BME280;39326;42.650;23.248;2023-02-05T04:32:40;92681.72;;;-6.51;81.61
53041;BME280;39326;42.650;23.248;2023-02-05T04:35:05;92684.81;;;-6.49;81.37
53041;BME280;39326;42.650;23.248;2023-02-05T04:37:31;92690.06;;;-6.59;81.61
53041;BME280;39326;42.650;23.248;2023-02-05T04:39:56;92693.75;;;-6.65;82.09
53041;BME280;39326;42.650;23.248;2023-02-05T04:42:21;92704.00;;;-6.50;81.80
53041;BME280;39326;42.650;23.248;2023-02-05T04:44:47;92691.38;;;-6.56;81.57
53041;BME280;39326;42.650;23.248;2023-02-05T04:47:12;92703.69;;;-6.43;81.59
53041;BME280;39326;42.650;23.248;2023-02-05T04:49:38;92705.22;;;-6.42;81.72
53041;BME280;39326;42.650;23.248;2023-02-05T04:52:05;92690.88;;;-6.34;81.18
53041;BME280;39326;42.650;23.248;2023-02-05T04:54:31;92697.28;;;-6.27;81.33
53041;BME280;39326;42.650;23.248;2023-02-05T04:56:57;92701.78;;;-6.32;81.12
53041;BME280;39326;42.650;23.248;2023-02-05T04:59:22;92701.13;;;-6.19;81.04
53041;BME280;39326;42.650;23.248;2023-02-05T05:01:48;92713.25;;;-6.15;79.53
53041;BME280;39326;42.650;23.248;2023-02-05T05:04:13;92710.19;;;-6.17;79.53
53041;BME280;39326;42.650;23.248;2023-02-05T05:06:38;92713.53;;;-6.16;80.00
53041;BME280;39326;42.650;23.248;2023-02-05T05:09:04;92710.47;;;-6.18;80.23
53041;BME280;39326;42.650;23.248;2023-02-05T05:11:29;92712.72;;;-6.11;80.40
53041;BME280;39326;42.650;23.248;2023-02-05T05:13:55;92714.31;;;-6.16;80.24
53041;BME280;39326;42.650;23.248;2023-02-05T05:16:20;92714.72;;;-6.03;79.78
53041;BME280;39326;42.650;23.248;2023-02-05T05:18:45;92726.03;;;-6.18;79.53
53041;BME280;39326;42.650;23.248;2023-02-05T05:21:11;92722.66;;;-6.19;79.50
53041;BME280;39326;42.650;23.248;2023-02-05T05:23:37;92732.28;;;-6.19;80.05
53041;BME280;39326;42.650;23.248;2023-02-05T05:26:06;92732.38;;;-6.05;79.77
53041;BME280;39326;42.650;23.248;2023-02-05T05:28:32;92744.97;;;-6.18;79.64
53041;BME280;39326;42.650;23.248;2023-02-05T05:30:59;92737.34;;;-6.09;79.28
53041;BME280;39326;42.650;23.248;2023-02-05T05:33:30;92740.81;;;-6.19;79.51
53041;BME280;39326;42.650;23.248;2023-02-05T05:35:55;92738.72;;;-6.17;80.17
53041;BME280;39326;42.650;23.248;2023-02-05T05:38:21;92749.19;;;-6.27;80.96
53041;BME280;39326;42.650;23.248;2023-02-05T05:40:46;92750.28;;;-6.33;80.78
53041;BME280;39326;42.650;23.248;2023-02-05T05:43:30;92755.88;;;-6.21;80.53
53041;BME280;39326;42.650;23.248;2023-02-05T05:46:11;92748.50;;;-6.37;80.49
53041;BME280;39326;42.650;23.248;2023-02-05T05:48:37;92760.81;;;-6.19;80.91
53041;BME280;39326;42.650;23.248;2023-02-05T05:51:02;92761.72;;;-6.05;80.60
53041;BME280;39326;42.650;23.248;2023-02-05T05:53:28;92762.84;;;-5.87;80.45
53041;BME280;39326;42.650;23.248;2023-02-05T05:55:53;92762.50;;;-5.80;79.87
53041;BME280;39326;42.650;23.248;2023-02-05T05:58:19;92762.25;;;-5.84;80.12
53041;BME280;39326;42.650;23.248;2023-02-05T06:00:44;92766.81;;;-5.71;77.83
53041;BME280;39326;42.650;23.248;2023-02-05T06:03:10;92769.19;;;-5.74;78.57
53041;BME280;39326;42.650;23.248;2023-02-05T06:05:36;92768.19;;;-5.78;78.98
53041;BME280;39326;42.650;23.248;2023-02-05T06:08:01;92771.69;;;-6.17;79.49
53041;BME280;39326;42.650;23.248;2023-02-05T06:10:27;92778.41;;;-6.16;80.85
53041;BME280;39326;42.650;23.248;2023-02-05T06:12:53;92778.59;;;-6.07;80.26
53041;BME280;39326;42.650;23.248;2023-02-05T06:15:19;92779.91;;;-6.39;79.57
53041;BME280;39326;42.650;23.248;2023-02-05T06:17:45;92787.09;;;-6.31;80.58
53041;BME280;39326;42.650;23.248;2023-02-05T06:20:11;92789.25;;;-6.09;80.58
53041;BME280;39326;42.650;23.248;2023-02-05T06:22:37;92796.53;;;-6.11;80.72
53041;BME280;39326;42.650;23.248;2023-02-05T06:25:04;92801.03;;;-6.22;80.33
53041;BME280;39326;42.650;23.248;2023-02-05T06:27:29;92806.50;;;-6.23;80.39
53041;BME280;39326;42.650;23.248;2023-02-05T06:29:55;92810.75;;;-6.03;80.47
53041;BME280;39326;42.650;23.248;2023-02-05T06:32:20;92813.22;;;-5.88;79.04
53041;BME280;39326;42.650;23.248;2023-02-05T06:34:46;92820.91;;;-6.07;80.52
53041;BME280;39326;42.650;23.248;2023-02-05T06:37:12;92807.94;;;-6.07;80.55
53041;BME280;39326;42.650;23.248;2023-02-05T06:39:37;92816.03;;;-5.84;79.72
53041;BME280;39326;42.650;23.248;2023-02-05T06:42:03;92814.75;;;-5.87;79.53
53041;BME280;39326;42.650;23.248;2023-02-05T06:44:29;92816.63;;;-6.27;80.68
53041;BME280;39326;42.650;23.248;2023-02-05T06:46:54;92824.69;;;-6.28;81.37
53041;BME280;39326;42.650;23.248;2023-02-05T06:49:20;92826.00;;;-5.97;80.47
53041;BME280;39326;42.650;23.248;2023-02-05T06:51:45;92828.69;;;-6.07;80.46
53041;BME280;39326;42.650;23.248;2023-02-05T06:54:10;92835.63;;;-6.02;80.86
53041;BME280;39326;42.650;23.248;2023-02-05T06:56:36;92841.03;;;-5.94;79.78
53041;BME280;39326;42.650;23.248;2023-02-05T06:59:01;92845.25;;;-6.03;80.44
53041;BME280;39326;42.650;23.248;2023-02-05T07:01:27;92840.53;;;-6.30;80.71
53041;BME280;39326;42.650;23.248;2023-02-05T07:03:52;92842.50;;;-6.17;81.02
53041;BME280;39326;42.650;23.248;2023-02-05T07:06:21;92846.19;;;-6.23;80.97
53041;BME280;39326;42.650;23.248;2023-02-05T07:08:48;92846.56;;;-6.05;80.21
53041;BME280;39326;42.650;23.248;2023-02-05T07:11:14;92846.94;;;-6.17;80.63
53041;BME280;39326;42.650;23.248;2023-02-05T07:13:40;92847.41;;;-6.15;80.58
53041;BME280;39326;42.650;23.248;2023-02-05T07:16:06;92846.94;;;-6.17;80.72
53041;BME280;39326;42.650;23.248;2023-02-05T07:18:32;92844.97;;;-6.30;81.70
53041;BME280;39326;42.650;23.248;2023-02-05T07:20:58;92853.91;;;-6.12;81.19
53041;BME280;39326;42.650;23.248;2023-02-05T07:23:24;92854.53;;;-6.26;81.86
53041;BME280;39326;42.650;23.248;2023-02-05T07:25:50;92856.59;;;-5.94;80.77
53041;BME280;39326;42.650;23.248;2023-02-05T07:28:15;92848.19;;;-6.15;81.67
53041;BME280;39326;42.650;23.248;2023-02-05T07:30:41;92861.59;;;-6.02;81.58
53041;BME280;39326;42.650;23.248;2023-02-05T07:33:06;92861.84;;;-5.99;81.79
53041;BME280;39326;42.650;23.248;2023-02-05T07:35:32;92855.28;;;-5.91;80.86
53041;BME280;39326;42.650;23.248;2023-02-05T07:38:00;92859.09;;;-5.83;80.37
53041;BME280;39326;42.650;23.248;2023-02-05T07:40:26;92855.94;;;-5.75;80.64
53041;BME280;39326;42.650;23.248;2023-02-05T07:42:51;92855.38;;;-5.72;80.74
53041;BME280;39326;42.650;23.248;2023-02-05T07:45:17;92863.97;;;-5.48;80.41
53041;BME280;39326;42.650;23.248;2023-02-05T07:47:42;92871.81;;;-5.53;80.07
53041;BME280;39326;42.650;23.248;2023-02-05T07:50:08;92862.72;;;-5.50;80.55
53041;BME280;39326;42.650;23.248;2023-02-05T07:52:34;92876.44;;;-5.74;81.05
53041;BME280;39326;42.650;23.248;2023-02-05T07:54:59;92880.13;;;-5.80;81.68
53041;BME280;39326;42.650;23.248;2023-02-05T07:57:25;92866.69;;;-5.87;82.98
53041;BME280;39326;42.650;23.248;2023-02-05T07:59:53;92880.13;;;-5.80;82.28
53041;BME280;39326;42.650;23.248;2023-02-05T08:02:18;92887.50;;;-5.63;81.52
53041;BME280;39326;42.650;23.248;2023-02-05T08:04:43;92894.88;;;-5.46;80.70
53041;BME280;39326;42.650;23.248;2023-02-05T08:07:11;92891.44;;;-5.42;81.29
53041;BME280;39326;42.650;23.248;2023-02-05T08:09:37;92895.09;;;-5.43;81.22
53041;BME280;39326;42.650;23.248;2023-02-05T08:12:03;92901.19;;;-5.57;81.38
53041;BME280;39326;42.650;23.248;2023-02-05T08:14:29;92899.19;;;-5.66;82.08
53041;BME280;39326;42.650;23.248;2023-02-05T08:16:56;92898.28;;;-5.51;82.04
53041;BME280;39326;42.650;23.248;2023-02-05T08:19:23;92905.69;;;-5.39;81.14
53041;BME280;39326;42.650;23.248;2023-02-05T08:21:49;92905.53;;;-5.48;81.32
53041;BME280;39326;42.650;23.248;2023-02-05T08:24:14;92901.28;;;-5.39;81.78
53041;BME280;39326;42.650;23.248;2023-02-05T08:26:40;92900.91;;;-5.27;81.74
53041;BME280;39326;42.650;23.248;2023-02-05T08:29:06;92897.88;;;-5.10;81.29
53041;BME280;39326;42.650;23.248;2023-02-05T08:31:33;92907.94;;;-5.03;80.53
53041;BME280;39326;42.650;23.248;2023-02-05T08:33:58;92898.25;;;-4.98;80.38
53041;BME280;39326;42.650;23.248;2023-02-05T08:36:25;92906.94;;;-4.84;80.74
53041;BME280;39326;42.650;23.248;2023-02-05T08:38:50;92903.28;;;-4.83;80.03
53041;BME280;39326;42.650;23.248;2023-02-05T08:41:15;92909.16;;;-4.72;79.62
53041;BME280;39326;42.650;23.248;2023-02-05T08:43:43;92901.97;;;-4.80;80.21
53041;BME280;39326;42.650;23.248;2023-02-05T08:46:09;92906.16;;;-4.84;79.73
53041;BME280;39326;42.650;23.248;2023-02-05T08:48:35;92911.84;;;-4.82;79.34
53041;BME280;39326;42.650;23.248;2023-02-05T08:51:01;92903.31;;;-4.64;79.77
53041;BME280;39326;42.650;23.248;2023-02-05T08:53:29;92896.56;;;-4.65;79.30
53041;BME280;39326;42.650;23.248;2023-02-05T08:55:56;92910.97;;;-4.72;78.01
53041;BME280;39326;42.650;23.248;2023-02-05T08:58:22;92912.88;;;-4.59;77.72
53041;BME280;39326;42.650;23.248;2023-02-05T09:00:48;92908.53;;;-4.45;77.50
53041;BME280;39326;42.650;23.248;2023-02-05T09:03:14;92921.13;;;-4.33;75.87
53041;BME280;39326;42.650;23.248;2023-02-05T09:05:39;92925.56;;;-4.76;74.74
53041;BME280;39326;42.650;23.248;2023-02-05T09:08:04;92928.19;;;-4.76;75.25
53041;BME280;39326;42.650;23.248;2023-02-05T09:10:30;92933.75;;;-4.64;74.06
53041;BME280;39326;42.650;23.248;2023-02-05T09:12:55;92932.78;;;-4.92;73.39
53041;BME280;39326;42.650;23.248;2023-02-05T09:15:21;92930.41;;;-5.13;73.15
53041;BME280;39326;42.650;23.248;2023-02-05T09:17:46;92938.28;;;-4.94;75.01
53041;BME280;39326;42.650;23.248;2023-02-05T09:20:12;92941.13;;;-4.71;74.28
53041;BME280;39326;42.650;23.248;2023-02-05T09:22:37;92943.28;;;-4.79;72.58
53041;BME280;39326;42.650;23.248;2023-02-05T09:25:04;92945.34;;;-4.99;72.30
53041;BME280;39326;42.650;23.248;2023-02-05T09:27:30;92950.09;;;-4.83;73.52
53041;BME280;39326;42.650;23.248;2023-02-05T09:29:55;92935.59;;;-5.13;70.82
53041;BME280;39326;42.650;23.248;2023-02-05T09:32:21;92948.72;;;-4.99;71.50
53041;BME280;39326;42.650;23.248;2023-02-05T09:34:46;92956.81;;;-5.00;71.21
53041;BME280;39326;42.650;23.248;2023-02-05T09:37:13;92957.00;;;-4.97;72.88
53041;BME280;39326;42.650;23.248;2023-02-05T09:39:39;92959.28;;;-4.90;72.08
53041;BME280;39326;42.650;23.248;2023-02-05T09:42:23;92956.53;;;-4.75;73.25
53041;BME280;39326;42.650;23.248;2023-02-05T09:45:15;92954.03;;;-4.61;71.42
53041;BME280;39326;42.650;23.248;2023-02-05T09:47:57;92958.84;;;-4.73;68.89
53041;BME280;39326;42.650;23.248;2023-02-05T09:50:26;92959.72;;;-4.83;70.12
53041;BME280;39326;42.650;23.248;2023-02-05T09:53:01;92959.53;;;-4.63;69.87
53041;BME280;39326;42.650;23.248;2023-02-05T09:55:32;92952.03;;;-4.69;68.70
53041;BME280;39326;42.650;23.248;2023-02-05T09:58:05;92957.16;;;-4.64;69.04
53041;BME280;39326;42.650;23.248;2023-02-05T10:03:26;92951.75;;;-4.44;69.76
53041;BME280;39326;42.650;23.248;2023-02-05T10:11:47;92952.16;;;-4.56;68.54
53041;BME280;39326;42.650;23.248;2023-02-05T10:23:22;92966.09;;;-4.28;68.68
53041;BME280;39326;42.650;23.248;2023-02-05T10:26:11;92960.72;;;-4.55;67.19
53041;BME280;39326;42.650;23.248;2023-02-05T10:37:16;92973.19;;;-4.33;66.76
53041;BME280;39326;42.650;23.248;2023-02-05T10:39:43;92973.53;;;-4.40;66.06
53041;BME280;39326;42.650;23.248;2023-02-05T10:42:30;92968.22;;;-4.30;65.93
53041;BME280;39326;42.650;23.248;2023-02-05T10:45:07;92967.13;;;-4.47;63.30
53041;BME280;39326;42.650;23.248;2023-02-05T10:53:02;92959.50;;;-4.20;65.26
53041;BME280;39326;42.650;23.248;2023-02-05T10:55:27;92965.00;;;-4.45;63.09
53041;BME280;39326;42.650;23.248;2023-02-05T10:57:53;92966.66;;;-4.73;63.25
53041;BME280;39326;42.650;23.248;2023-02-05T11:00:20;92961.63;;;-4.46;64.44
53041;BME280;39326;42.650;23.248;2023-02-05T11:02:53;92961.84;;;-4.61;62.92
53041;BME280;39326;42.650;23.248;2023-02-05T11:05:37;92962.97;;;-4.48;63.98
53041;BME280;39326;42.650;23.248;2023-02-05T11:08:04;92967.66;;;-4.51;64.25
53041;BME280;39326;42.650;23.248;2023-02-05T11:10:52;92973.13;;;-4.71;63.41
53041;BME280;39326;42.650;23.248;2023-02-05T11:13:19;92971.13;;;-4.55;63.48
53041;BME280;39326;42.650;23.248;2023-02-05T11:16:12;92966.75;;;-4.17;64.00
53041;BME280;39326;42.650;23.248;2023-02-05T11:18:39;92969.00;;;-4.10;63.72
53041;BME280;39326;42.650;23.248;2023-02-05T11:21:06;92969.66;;;-4.00;63.81
53041;BME280;39326;42.650;23.248;2023-02-05T11:23:33;92974.88;;;-4.00;62.18
53041;BME280;39326;42.650;23.248;2023-02-05T11:26:18;92967.06;;;-4.00;60.92
53041;BME280;39326;42.650;23.248;2023-02-05T11:28:44;92965.97;;;-4.17;61.94
53041;BME280;39326;42.650;23.248;2023-02-05T11:34:12;92969.84;;;-4.15;61.62
53041;BME280;39326;42.650;23.248;2023-02-05T11:36:51;92963.09;;;-3.97;61.65
53041;BME280;39326;42.650;23.248;2023-02-05T11:41:53;92956.47;;;-4.27;60.22
53041;BME280;39326;42.650;23.248;2023-02-05T11:44:28;92956.63;;;-3.81;60.81
53041;BME280;39326;42.650;23.248;2023-02-05T11:46:58;92957.66;;;-4.01;61.19
53041;BME280;39326;42.650;23.248;2023-02-05T11:49:38;92962.28;;;-3.60;60.92
53041;BME280;39326;42.650;23.248;2023-02-05T11:52:12;92968.50;;;-3.56;60.63
53041;BME280;39326;42.650;23.248;2023-02-05T11:54:38;92957.88;;;-3.13;60.61
53041;BME280;39326;42.650;23.248;2023-02-05T11:59:57;92963.63;;;-2.83;58.28
53041;BME280;39326;42.650;23.248;2023-02-05T12:13:21;92954.28;;;-3.31;56.86
53041;BME280;39326;42.650;23.248;2023-02-05T12:15:53;92948.53;;;-3.47;58.37
53041;BME280;39326;42.650;23.248;2023-02-05T12:18:56;92952.28;;;-3.53;59.19
53041;BME280;39326;42.650;23.248;2023-02-05T12:21:35;92950.06;;;-3.46;58.75
53041;BME280;39326;42.650;23.248;2023-02-05T12:24:41;92961.91;;;-3.34;59.85
53041;BME280;39326;42.650;23.248;2023-02-05T12:43:36;92952.53;;;-3.87;61.46
53041;BME280;39326;42.650;23.248;2023-02-05T12:46:26;92960.94;;;-3.57;62.46
53041;BME280;39326;42.650;23.248;2023-02-05T12:52:10;92968.16;;;-3.68;64.66
53041;BME280;39326;42.650;23.248;2023-02-05T12:54:51;92962.28;;;-3.60;64.67
53041;BME280;39326;42.650;23.248;2023-02-05T12:57:34;92958.53;;;-3.86;67.28
53041;BME280;39326;42.650;23.248;2023-02-05T13:00:06;92958.66;;;-3.97;68.93
53041;BME280;39326;42.650;23.248;2023-02-05T13:02:44;92959.72;;;-3.98;70.01
53041;BME280;39326;42.650;23.248;2023-02-05T13:05:17;92953.50;;;-3.83;68.78
53041;BME280;39326;42.650;23.248;2023-02-05T13:07:50;92966.19;;;-3.95;69.23
53041;BME280;39326;42.650;23.248;2023-02-05T13:10:20;92969.00;;;-4.10;70.67
53041;BME280;39326;42.650;23.248;2023-02-05T13:12:58;92947.06;;;-4.04;70.62
53041;BME280;39326;42.650;23.248;2023-02-05T13:15:30;92966.47;;;-4.15;70.31
53041;BME280;39326;42.650;23.248;2023-02-05T13:18:09;92965.22;;;-4.18;70.94
53041;BME280;39326;42.650;23.248;2023-02-05T13:20:40;92975.31;;;-4.35;71.90
53041;BME280;39326;42.650;23.248;2023-02-05T13:23:26;92978.13;;;-4.32;71.68
53041;BME280;39326;42.650;23.248;2023-02-05T13:26:13;92979.84;;;-4.46;71.85
53041;BME280;39326;42.650;23.248;2023-02-05T13:29:15;92972.63;;;-4.49;71.36
53041;BME280;39326;42.650;23.248;2023-02-05T13:31:42;92977.31;;;-4.51;71.92
53041;BME280;39326;42.650;23.248;2023-02-05T13:34:13;92984.03;;;-4.69;71.60
53041;BME280;39326;42.650;23.248;2023-02-05T13:53:44;92998.94;;;-4.32;71.88
53041;BME280;39326;42.650;23.248;2023-02-05T13:58:28;92995.75;;;-4.47;71.23
53041;BME280;39326;42.650;23.248;2023-02-05T14:03:39;92989.97;;;-5.16;74.50
53041;BME280;39326;42.650;23.248;2023-02-05T14:06:21;92993.97;;;-5.00;74.52
53041;BME280;39326;42.650;23.248;2023-02-05T14:08:59;93000.03;;;-4.81;75.01
53041;BME280;39326;42.650;23.248;2023-02-05T14:11:26;92996.69;;;-4.86;74.12
53041;BME280;39326;42.650;23.248;2023-02-05T14:14:23;92994.41;;;-5.22;74.60
53041;BME280;39326;42.650;23.248;2023-02-05T14:16:49;93005.38;;;-5.25;74.91
53041;BME280;39326;42.650;23.248;2023-02-05T14:19:19;92997.38;;;-5.34;74.88
53041;BME280;39326;42.650;23.248;2023-02-05T14:24:39;93005.03;;;-5.47;74.10
53041;BME280;39326;42.650;23.248;2023-02-05T14:29:56;93003.38;;;-5.72;74.81
53041;BME280;39326;42.650;23.248;2023-02-05T14:37:36;93015.41;;;-5.81;76.28
53041;BME280;39326;42.650;23.248;2023-02-05T14:42:45;93005.66;;;-5.61;75.20
53041;BME280;39326;42.650;23.248;2023-02-05T14:45:15;92993.84;;;-5.82;74.74
53041;BME280;39326;42.650;23.248;2023-02-05T14:47:42;93007.31;;;-5.75;75.61
53041;BME280;39326;42.650;23.248;2023-02-05T14:50:25;93006.47;;;-5.70;75.49
53041;BME280;39326;42.650;23.248;2023-02-05T14:53:01;93006.06;;;-5.48;74.30
53041;BME280;39326;42.650;23.248;2023-02-05T14:55:38;93004.44;;;-5.39;75.22
53041;BME280;39326;42.650;23.248;2023-02-05T14:58:07;93015.66;;;-5.44;74.85
53041;BME280;39326;42.650;23.248;2023-02-05T15:00:43;93007.63;;;-5.47;75.07
53041;BME280;39326;42.650;23.248;2023-02-05T15:05:53;93011.00;;;-5.81;76.48
53041;BME280;39326;42.650;23.248;2023-02-05T15:11:25;93039.28;;;-6.34;78.99
53041;BME280;39326;42.650;23.248;2023-02-05T15:19:48;93033.03;;;-6.28;79.00
53041;BME280;39326;42.650;23.248;2023-02-05T15:22:34;93045.22;;;-6.33;80.06
53041;BME280;39326;42.650;23.248;2023-02-05T15:25:01;93047.88;;;-6.44;79.60
53041;BME280;39326;42.650;23.248;2023-02-05T15:27:43;93053.06;;;-6.44;80.03
53041;BME280;39326;42.650;23.248;2023-02-05T15:30:17;93054.31;;;-6.31;78.60
53041;BME280;39326;42.650;23.248;2023-02-05T15:32:51;93050.41;;;-6.28;78.91